Terminal Aerodrome Forecast
Issued by NWS

Home | Current Version | Previous Version | Text Only | Print | Product List | Glossary On
Versions: 1 2 3 4 5 6 7 8 9 10 11 12 13 14 15 16 17 18
000
FTUS45 KMSO 300522
TAFSMN
TAF
KSMN 300522Z 3006/0106 VRB05KT P6SM VCSH BKN050
     FM301500 34006KT P6SM -SHRA BKN025 OVC050
     FM301800 36010KT P6SM BKN050
      AMD LTD TO CLD VIS AND WIND=

USA.gov is the U.S. government's official web portal to all federal, state and local government web resources and services.